Time;durP1;ratioP1;P1;durP2;ratioP2;P2;SDS_P1;SDS_P2;PMS_P1;PMS_P2;Temp;Humidity;BMP_temperature;BMP_pressure;BME280_temperature;BME280_humidity;BME280_pressure;Samples;Min_cycle;Max_cycle;Signal;HPM_P1;HPM_P2
2022/07/16 00:02:51;;;;;;;9.35;4.00;;;589.60;2355.20;;;;;;4979624;28;20041;-86
2022/07/16 00:05:17;;;;;;;13.63;4.50;;;589.70;2380.80;;;;;;4962021;28;20023;-87
2022/07/16 00:07:43;;;;;;;14.35;4.30;;;589.40;2380.80;;;;;;4962309;28;20085;-86
2022/07/16 00:10:09;;;;;;;13.45;4.45;;;589.20;2406.40;;;;;;4962805;28;20031;-86
2022/07/16 00:12:35;;;;;;;9.40;3.88;;;589.50;2406.40;;;;;;4962603;28;20027;-86
2022/07/16 00:15:03;;;;;;;8.85;4.07;;;589.30;2406.40;;;;;;4962451;28;20034;-86
2022/07/16 00:17:29;;;;;;;15.27;4.20;;;589.50;2380.80;;;;;;4962363;28;20075;-87
2022/07/16 00:19:55;;;;;;;8.38;3.30;;;589.30;2380.80;;;;;;4961748;28;20070;-87
2022/07/16 00:22:21;;;;;;;6.53;3.38;;;589.40;2355.20;;;;;;4961682;28;20058;-89
2022/07/16 00:24:47;;;;;;;9.13;3.70;;;;;;;;;;4961926;28;20081;-87
2022/07/16 00:27:13;;;;;;;8.00;3.22;;;;;;;;;;4961880;28;20027;-87
2022/07/16 00:29:39;;;;;;;5.60;3.00;;;;;;;;;;4962079;28;20023;-88
2022/07/16 00:32:05;;;;;;;6.75;2.72;;;614.40;2201.60;;;;;;4961452;28;20057;-86
2022/07/16 00:34:32;;;;;;;5.28;3.03;;;589.70;2201.60;;;;;;4961892;28;20027;-85
2022/07/16 00:36:58;;;;;;;6.68;3.53;;;614.40;2201.60;;;;;;4961476;28;20038;-85
2022/07/16 00:39:24;;;;;;;8.70;3.10;;;614.40;2278.40;;;;;;4961053;28;20034;-85
2022/07/16 00:41:51;;;;;;;6.32;2.70;;;589.70;2278.40;;;;;;4961588;28;20478;-85
2022/07/16 00:44:19;;;;;;;6.28;2.92;;;589.70;2278.40;;;;;;4963135;28;20161;-85
2022/07/16 00:46:46;;;;;;;7.07;2.95;;;589.70;2304.00;;;;;;4964462;28;20065;-86
2022/07/16 00:49:13;;;;;;;4.82;2.95;;;589.70;2278.40;;;;;;4962686;28;20459;-86
2022/07/16 00:51:49;;;;;;;6.45;3.22;;;589.50;2304.00;;;;;;4961882;28;20066;-86
2022/07/16 00:54:16;;;;;;;5.03;3.15;;;589.70;2252.80;;;;;;4961407;28;20062;-87
2022/07/16 00:56:42;;;;;;;8.63;2.92;;;589.40;2201.60;;;;;;4961060;28;20463;-85
2022/07/16 00:59:08;;;;;;;5.40;3.20;;;614.40;2150.40;;;;;;4961707;28;20078;-86
2022/07/16 01:01:34;;;;;;;7.43;2.80;;;614.50;2150.40;;;;;;4960612;28;20035;-86
2022/07/16 01:04:04;;;;;;;14.52;3.47;;;614.60;2150.40;;;;;;4960471;28;20561;-86
2022/07/16 01:06:31;;;;;;;8.95;2.78;;;614.60;2150.40;;;;;;4960870;28;20034;-86
2022/07/16 01:08:58;;;;;;;7.32;2.80;;;614.70;2150.40;;;;;;4960292;28;20065;-85
2022/07/16 01:11:25;;;;;;;6.88;3.17;;;614.60;2201.60;;;;;;4959052;28;20494;-85
2022/07/16 01:13:51;;;;;;;4.63;2.45;;;614.60;2201.60;;;;;;4959417;28;20046;-86
2022/07/16 01:16:18;;;;;;;6.75;2.80;;;614.50;2099.20;;;;;;4959137;28;20018;-86
2022/07/16 01:18:45;;;;;;;5.80;3.15;;;614.80;2073.60;;;;;;4959099;28;20042;-84
2022/07/16 01:21:12;;;;;;;9.05;3.17;;;614.80;2073.60;;;;;;4958992;28;20046;-86
2022/07/16 01:23:38;;;;;;;10.98;3.20;;;614.80;2099.20;;;;;;4959259;28;20027;-86
2022/07/16 01:26:04;;;;;;;8.48;3.20;;;615.20;2150.40;;;;;;4959035;28;20382;-85
2022/07/16 01:28:30;;;;;;;6.68;3.13;;;614.40;2150.40;;;;;;4958956;28;20022;-84
2022/07/16 01:30:56;;;;;;;20.63;4.78;;;589.70;2176.00;;;;;;4958922;28;20035;-87
2022/07/16 01:33:35;;;;;;;25.35;4.03;;;589.70;2176.00;;;;;;4958673;28;20057;-85
2022/07/16 01:36:08;;;;;;;5.78;3.08;;;589.60;2201.60;;;;;;4958756;28;20027;-85
2022/07/16 01:38:36;;;;;;;9.25;2.90;;;589.50;2201.60;;;;;;4958860;28;20038;-87
2022/07/16 01:41:02;;;;;;;7.60;3.15;;;589.30;2227.20;;;;;;4958591;28;20129;-85
2022/07/16 01:43:29;;;;;;;9.25;3.30;;;589.40;2227.20;;;;;;4958784;28;20106;-86
2022/07/16 01:45:56;;;;;;;7.38;2.97;;;589.40;2227.20;;;;;;4958670;28;20035;-87
2022/07/16 01:48:23;;;;;;;9.68;2.97;;;589.40;2201.60;;;;;;4959232;28;20027;-85
2022/07/16 01:50:49;;;;;;;3.95;2.20;;;589.50;2150.40;;;;;;4961382;28;20101;-85
2022/07/16 01:53:16;;;;;;;6.15;2.70;;;589.70;2073.60;;;;;;4958593;28;20387;-85
2022/07/16 01:55:42;;;;;;;5.25;2.60;;;589.00;2073.60;;;;;;4961137;28;20054;-86
2022/07/16 01:58:10;;;;;;;6.97;2.33;;;614.40;2073.60;;;;;;4958708;28;20027;-86
2022/07/16 02:00:37;;;;;;;6.65;2.90;;;614.40;2099.20;;;;;;4958895;28;20035;-87
2022/07/16 02:03:04;;;;;;;7.00;2.42;;;589.70;2099.20;;;;;;4958887;28;20027;-87
2022/07/16 02:05:30;;;;;;;6.53;2.53;;;589.60;2073.60;;;;;;4958139;28;20023;-84
2022/07/16 02:07:56;;;;;;;4.93;2.58;;;589.00;2048.00;;;;;;4958724;28;20026;-87
2022/07/16 02:10:22;;;;;;;6.88;2.45;;;614.50;2022.40;;;;;;4958485;28;20363;-87
2022/07/16 02:12:48;;;;;;;6.90;2.40;;;614.60;1996.80;;;;;;4958365;28;20027;-88
2022/07/16 02:15:14;;;;;;;6.00;2.40;;;614.60;1971.20;;;;;;4958238;28;20057;-84
2022/07/16 02:17:41;;;;;;;8.55;2.72;;;614.40;2022.40;;;;;;4958206;28;20118;-87
2022/07/16 02:20:08;;;;;;;8.02;2.72;;;589.60;2176.00;;;;;;4975451;28;20038;-85
2022/07/16 02:22:34;;;;;;;6.75;2.90;;;589.50;2124.80;;;;;;4960848;28;20027;-87
2022/07/16 02:25:03;;;;;;;6.53;2.60;;;589.70;2048.00;;;;;;4964489;28;20502;-87
2022/07/16 02:27:29;;;;;;;8.18;3.13;;;589.50;2124.80;;;;;;4964703;28;20027;-84
2022/07/16 02:29:55;;;;;;;6.18;3.00;;;589.50;2124.80;;;;;;4964774;28;20570;-84
2022/07/16 02:32:20;;;;;;;8.35;2.90;;;589.00;2227.20;;;;;;4964351;28;20050;-84
2022/07/16 02:34:48;;;;;;;5.60;3.00;;;588.80;2252.80;;;;;;4964857;28;20046;-84
2022/07/16 02:37:14;;;;;;;7.40;2.80;;;564.10;2278.40;;;;;;4968373;28;20050;-83
2022/07/16 02:39:40;;;;;;;7.95;2.83;;;564.00;2304.00;;;;;;4986803;28;20015;-82
2022/07/16 02:42:06;;;;;;;8.55;3.38;;;564.10;2278.40;;;;;;4980284;28;20026;-83
2022/07/16 02:44:32;;;;;;;9.27;2.88;;;564.10;2278.40;;;;;;4964709;28;20359;-84
2022/07/16 02:46:58;;;;;;;12.80;3.45;;;564.10;2278.40;;;;;;4981581;28;20030;-84
2022/07/16 02:49:24;;;;;;;7.55;3.30;;;564.10;2278.40;;;;;;4964446;28;20029;-84
2022/07/16 02:51:49;;;;;;;6.45;3.10;;;563.90;2278.40;;;;;;4964062;28;20031;-85
2022/07/16 02:54:15;;;;;;;6.78;2.95;;;563.90;2278.40;;;;;;4963989;28;20038;-85
2022/07/16 02:56:41;;;;;;;5.45;2.83;;;563.90;2278.40;;;;;;4964428;28;20521;-84
2022/07/16 02:59:07;;;;;;;5.30;2.72;;;564.00;2252.80;;;;;;4964431;28;20034;-84
2022/07/16 03:01:33;;;;;;;7.10;3.47;;;564.00;2252.80;;;;;;4964164;28;20125;-84
2022/07/16 03:03:58;;;;;;;10.45;3.20;;;563.90;2252.80;;;;;;4964168;28;20084;-84
2022/07/16 03:06:24;;;;;;;5.63;2.67;;;563.90;2227.20;;;;;;4964000;28;20023;-84
2022/07/16 03:08:50;;;;;;;4.43;2.95;;;563.90;2252.80;;;;;;4964237;28;20027;-85
2022/07/16 03:11:16;;;;;;;5.25;3.15;;;563.70;2278.40;;;;;;4964194;28;20162;-84
2022/07/16 03:13:43;;;;;;;6.38;3.50;;;563.70;2304.00;;;;;;4963924;28;20123;-84
2022/07/16 03:16:08;;;;;;;5.85;3.13;;;563.70;2304.00;;;;;;4964148;28;20090;-85
2022/07/16 03:18:34;;;;;;;7.43;3.08;;;563.60;2278.40;;;;;;4964608;28;20125;-84
2022/07/16 03:21:00;;;;;;;7.28;3.22;;;563.50;2278.40;;;;;;4964452;28;20038;-85
2022/07/16 03:23:26;;;;;;;6.68;3.10;;;563.60;2278.40;;;;;;4964490;28;20029;-85
2022/07/16 03:25:52;;;;;;;7.00;3.10;;;563.60;2278.40;;;;;;4964202;28;20363;-86
2022/07/16 03:28:18;;;;;;;7.03;3.45;;;563.60;2304.00;;;;;;4964023;28;20030;-85
2022/07/16 03:30:44;;;;;;;8.25;3.40;;;563.60;2278.40;;;;;;4963625;28;20086;-85
2022/07/16 03:33:09;;;;;;;9.63;3.22;;;563.50;2329.60;;;;;;4964314;28;20046;-85
2022/07/16 03:35:35;;;;;;;5.35;3.80;;;538.40;2380.80;;;;;;4961298;28;20042;-82
2022/07/16 03:40:45;;;;;;;8.38;3.85;;;538.20;2380.80;;;;;;4978110;28;20086;-82
2022/07/16 03:43:11;;;;;;;11.23;4.05;;;538.20;2406.40;;;;;;4961095;28;20454;-83
2022/07/16 03:45:37;;;;;;;12.48;4.35;;;538.10;2406.40;;;;;;4961014;28;20057;-83
2022/07/16 03:48:03;;;;;;;6.78;4.43;;;537.90;2406.40;;;;;;4966630;28;20027;-82
2022/07/16 03:50:28;;;;;;;12.32;4.25;;;538.00;2406.40;;;;;;4976780;28;20037;-82
2022/07/16 03:52:54;;;;;;;9.02;3.75;;;538.00;2406.40;;;;;;4975368;28;20086;-83
2022/07/16 03:55:20;;;;;;;12.45;3.88;;;538.00;2406.40;;;;;;4973203;28;20023;-82
2022/07/16 03:57:46;;;;;;;7.05;3.65;;;538.20;2406.40;;;;;;4984449;28;20015;-82
2022/07/16 04:00:13;;;;;;;8.02;3.50;;;538.20;2406.40;;;;;;4984973;28;20034;-79
2022/07/16 04:02:38;;;;;;;7.63;3.63;;;538.40;2380.80;;;;;;4984711;28;20015;-81
2022/07/16 04:05:05;;;;;;;8.05;4.28;;;538.50;2380.80;;;;;;4965838;28;20074;-82
2022/07/16 04:07:30;;;;;;;7.55;4.72;;;538.00;2380.80;;;;;;4961526;28;20055;-83
2022/07/16 04:09:56;;;;;;;9.02;3.72;;;538.50;2380.80;;;;;;4959589;28;20034;-82
2022/07/16 04:12:23;;;;;;;8.82;3.38;;;538.40;2380.80;;;;;;4960665;28;20069;-83
2022/07/16 04:14:50;;;;;;;8.75;3.50;;;538.50;2406.40;;;;;;4960477;28;20062;-85
2022/07/16 04:17:16;;;;;;;10.40;3.40;;;538.50;2380.80;;;;;;4960363;28;20023;-83
2022/07/16 04:19:42;;;;;;;7.43;3.53;;;538.40;2380.80;;;;;;4960173;28;20027;-85
2022/07/16 04:22:08;;;;;;;7.60;4.47;;;563.20;2406.40;;;;;;4960382;28;20050;-84
2022/07/16 04:24:34;;;;;;;6.10;3.50;;;538.50;2380.80;;;;;;4960732;28;20026;-84
2022/07/16 04:26:59;;;;;;;9.88;3.50;;;563.30;2406.40;;;;;;4960936;28;20027;-83
2022/07/16 04:29:25;;;;;;;7.05;3.53;;;538.40;2380.80;;;;;;4960361;28;20557;-84
2022/07/16 04:31:51;;;;;;;9.10;3.78;;;563.40;2406.40;;;;;;4959863;28;20141;-85
2022/07/16 04:34:17;;;;;;;12.32;4.93;;;563.30;2406.40;;;;;;4960155;28;20023;-84
2022/07/16 04:36:44;;;;;;;6.80;3.78;;;563.30;2432.00;;;;;;4959798;28;20094;-85
2022/07/16 04:39:10;;;;;;;7.07;3.85;;;563.40;2432.00;;;;;;4960412;28;20046;-85
2022/07/16 04:41:36;;;;;;;7.18;3.45;;;563.60;2406.40;;;;;;4959705;28;20125;-84
2022/07/16 04:44:02;;;;;;;8.38;3.83;;;563.60;2406.40;;;;;;4959556;28;20451;-83
2022/07/16 04:46:28;;;;;;;12.18;4.85;;;563.60;2380.80;;;;;;4958944;28;20031;-84
2022/07/16 04:48:54;;;;;;;7.22;3.70;;;563.50;2406.40;;;;;;4959759;28;20031;-86
2022/07/16 04:51:19;;;;;;;9.23;4.25;;;563.50;2432.00;;;;;;4959967;28;20027;-84
2022/07/16 04:53:45;;;;;;;10.68;4.65;;;563.60;2432.00;;;;;;4961502;28;20034;-84
2022/07/16 04:56:11;;;;;;;10.00;4.50;;;563.40;2432.00;;;;;;4962650;28;20129;-82
2022/07/16 04:58:37;;;;;;;11.77;4.38;;;563.40;2432.00;;;;;;4960314;28;20073;-83
2022/07/16 05:01:03;;;;;;;11.80;5.38;;;563.70;2380.80;;;;;;4959061;28;20089;-82
2022/07/16 05:03:29;;;;;;;7.60;4.07;;;563.60;2406.40;;;;;;4958973;28;20037;-81
2022/07/16 05:05:54;;;;;;;9.20;4.55;;;563.70;2380.80;;;;;;4958708;28;20027;-84
2022/07/16 05:08:20;;;;;;;10.45;5.03;;;563.90;2355.20;;;;;;4959396;28;20128;-82
2022/07/16 05:10:46;;;;;;;12.00;5.03;;;564.00;2355.20;;;;;;4959132;28;20390;-86
2022/07/16 05:13:12;;;;;;;10.98;6.93;;;564.10;2355.20;;;;;;4959066;28;20026;-83
2022/07/16 05:15:38;;;;;;;12.90;5.55;;;564.10;2355.20;;;;;;4959031;28;20030;-85
2022/07/16 05:18:04;;;;;;;8.40;5.05;;;564.10;2329.60;;;;;;4958884;28;20121;-84
2022/07/16 05:20:30;;;;;;;14.48;6.38;;;588.80;2355.20;;;;;;4958885;28;20111;-86
2022/07/16 05:22:56;;;;;;;11.63;6.03;;;588.90;2355.20;;;;;;4959274;28;20078;-85
2022/07/16 05:25:23;;;;;;;9.88;5.50;;;589.10;2329.60;;;;;;4959273;28;20023;-87
2022/07/16 05:27:49;;;;;;;10.30;6.85;;;589.00;2329.60;;;;;;4958836;28;20033;-83
2022/07/16 05:30:15;;;;;;;15.15;8.15;;;589.00;2304.00;;;;;;4959056;28;20442;-81
2022/07/16 05:32:42;;;;;;;14.82;7.93;;;589.10;2304.00;;;;;;4955197;29;20051;-86
2022/07/16 05:35:10;;;;;;;14.55;6.60;;;589.20;2304.00;;;;;;4956016;29;20034;-88
2022/07/16 05:37:36;;;;;;;12.77;5.97;;;589.30;2329.60;;;;;;4955997;29;20027;-85
2022/07/16 05:40:01;;;;;;;13.32;7.03;;;589.30;2278.40;;;;;;4955593;29;20030;-85
2022/07/16 05:42:27;;;;;;;15.27;6.97;;;589.30;2304.00;;;;;;4955734;29;20039;-86
2022/07/16 05:44:53;;;;;;;10.85;6.30;;;589.50;2304.00;;;;;;4955821;29;20031;-88
2022/07/16 05:47:19;;;;;;;10.80;6.05;;;589.50;2278.40;;;;;;4956801;29;20065;-86
2022/07/16 05:49:45;;;;;;;12.23;6.00;;;589.50;2278.40;;;;;;4967080;29;20477;-86
2022/07/16 05:52:11;;;;;;;9.57;6.55;;;589.30;2278.40;;;;;;4963308;29;20027;-85
2022/07/16 05:54:37;;;;;;;14.93;7.90;;;589.40;2252.80;;;;;;4955511;29;20023;-83
2022/07/16 05:57:03;;;;;;;10.48;6.78;;;589.40;2252.80;;;;;;4956502;28;20027;-84
2022/07/16 05:59:28;;;;;;;10.07;5.47;;;589.60;2252.80;;;;;;4955226;29;20023;-84
2022/07/16 06:01:54;;;;;;;10.75;6.22;;;589.70;2227.20;;;;;;4954962;29;20039;-85
2022/07/16 06:04:20;;;;;;;17.42;8.70;;;589.70;2227.20;;;;;;4955019;29;20023;-86
2022/07/16 06:06:46;;;;;;;10.73;7.20;;;614.40;2201.60;;;;;;4955367;29;20134;-86
2022/07/16 06:09:12;;;;;;;13.57;5.00;;;614.50;2176.00;;;;;;4954711;29;20027;-89
2022/07/16 06:11:38;;;;;;;9.75;4.50;;;614.50;2176.00;;;;;;4955331;29;20071;-87
2022/07/16 06:14:04;;;;;;;13.40;4.93;;;614.50;2176.00;;;;;;4955681;29;20054;-88
2022/07/16 06:16:30;;;;;;;8.50;4.78;;;614.80;2150.40;;;;;;4956148;29;20019;-87
2022/07/16 06:18:57;;;;;;;10.23;4.55;;;614.80;2176.00;;;;;;4955699;29;20451;-89
2022/07/16 06:21:23;;;;;;;11.32;5.13;;;614.90;2124.80;;;;;;4959534;29;20038;-87
2022/07/16 06:23:49;;;;;;;8.95;5.13;;;615.00;2099.20;;;;;;4960205;29;20023;-88
2022/07/16 06:26:16;;;;;;;9.25;4.93;;;;;;;;;;4957308;29;20027;-89
2022/07/16 06:28:42;;;;;;;9.52;5.68;;;;;;;;;;4957516;29;20054;-91
2022/07/16 06:31:08;;;;;;;9.32;4.38;;;;;;;;;;4955823;29;20031;-90
2022/07/16 06:33:35;;;;;;;7.35;4.43;;;;;;;;;;4955435;29;20043;-86
2022/07/16 06:36:01;;;;;;;9.38;4.60;;;640.10;2048.00;;;;;;4955681;29;20055;-86
2022/07/16 06:38:27;;;;;;;8.10;4.50;;;615.30;2048.00;;;;;;4957282;29;20387;-89
2022/07/16 06:40:53;;;;;;;9.80;4.28;;;640.00;2022.40;;;;;;4956868;29;20170;-86
2022/07/16 06:43:19;;;;;;;7.57;3.78;;;640.20;2048.00;;;;;;4955133;29;20030;-84
2022/07/16 06:45:48;;;;;;;7.18;4.43;;;640.50;2048.00;;;;;;4955265;29;20031;-87
2022/07/16 06:48:14;;;;;;;7.47;4.43;;;640.60;1996.80;;;;;;4954773;29;20030;-90
2022/07/16 06:50:40;;;;;;;9.68;4.38;;;640.90;1971.20;;;;;;4954673;29;20114;-89
2022/07/16 06:53:06;;;;;;;9.32;4.70;;;640.90;1971.20;;;;;;4954685;29;20123;-88
2022/07/16 06:55:33;;;;;;;8.00;4.60;;;640.90;1945.60;;;;;;4955101;29;20038;-88
2022/07/16 06:57:59;;;;;;;6.40;3.63;;;665.60;1971.20;;;;;;4954836;29;20094;-89
2022/07/16 07:00:25;;;;;;;11.93;4.60;;;665.60;1971.20;;;;;;4954608;29;20031;-88
2022/07/16 07:02:52;;;;;;;9.18;4.20;;;665.80;1971.20;;;;;;4954688;29;20027;-87
2022/07/16 07:05:18;;;;;;;10.23;4.43;;;640.70;1945.60;;;;;;4954842;29;20027;-88
2022/07/16 07:07:44;;;;;;;9.43;4.25;;;665.60;1971.20;;;;;;4954771;29;20419;-86
2022/07/16 07:10:11;;;;;;;7.10;3.67;;;665.90;1971.20;;;;;;4959525;28;20551;-86
2022/07/16 07:12:38;;;;;;;10.90;3.45;;;666.10;1945.60;;;;;;4960729;29;20438;-86
2022/07/16 07:15:05;;;;;;;8.95;3.40;;;666.20;1945.60;;;;;;4958419;29;20031;-86
2022/07/16 07:17:31;;;;;;;9.82;3.40;;;666.50;1920.00;;;;;;4959045;29;20031;-86
2022/07/16 07:19:57;;;;;;;8.82;4.45;;;666.30;1945.60;;;;;;4958423;29;20427;-83
2022/07/16 07:22:23;;;;;;;8.32;3.58;;;;;;;;;;4958294;29;20166;-82
2022/07/16 07:24:50;;;;;;;11.30;4.60;;;691.20;1920.00;;;;;;4957669;29;20024;-82
2022/07/16 07:27:18;;;;;;;10.20;3.92;;;666.50;1945.60;;;;;;4958600;29;20484;-83
2022/07/16 07:29:44;;;;;;;6.65;4.15;;;691.30;1920.00;;;;;;4958856;29;20391;-82
2022/07/16 07:32:10;;;;;;;6.80;3.42;;;691.20;1920.00;;;;;;4958233;29;20132;-83
2022/07/16 07:34:36;;;;;;;5.70;2.95;;;691.20;1945.60;;;;;;4958167;29;20058;-83
2022/07/16 07:37:01;;;;;;;6.85;2.47;;;691.30;1920.00;;;;;;4941997;29;20056;-81
2022/07/16 07:39:28;;;;;;;5.38;4.55;;;;;;;;;;4939628;29;20028;-84
2022/07/16 07:41:53;;;;;;;6.35;2.92;;;691.70;1868.80;;;;;;4939482;29;20035;-85
2022/07/16 07:44:20;;;;;;;4.50;2.40;;;;;;;;;;4940050;29;20042;-84
2022/07/16 07:46:46;;;;;;;4.15;2.50;;;;;;;;;;4939786;29;20035;-85
2022/07/16 07:49:12;;;;;;;5.45;2.60;;;;;;;;;;4940164;29;20028;-85
2022/07/16 07:51:38;;;;;;;4.88;2.70;;;716.80;1868.80;;;;;;4940989;29;20047;-84
2022/07/16 07:54:04;;;;;;;8.00;2.63;;;;;;;;;;4939516;29;20395;-83
2022/07/16 07:56:30;;;;;;;6.90;2.40;;;716.80;1843.20;;;;;;4939087;29;20055;-83
2022/07/16 07:58:56;;;;;;;7.03;2.53;;;716.80;1817.60;;;;;;4955953;29;20031;-86
2022/07/16 08:01:22;;;;;;;5.82;2.65;;;716.90;1817.60;;;;;;4958145;28;20035;-84
2022/07/16 08:03:48;;;;;;;4.63;2.63;;;;;;;;;;4957535;28;20490;-84
2022/07/16 08:06:14;;;;;;;10.30;3.30;;;;;;;;;;4958032;29;20464;-83
2022/07/16 08:08:40;;;;;;;4.82;2.45;;;;;;;;;;4956874;29;20471;-83
2022/07/16 08:11:06;;;;;;;5.78;2.42;;;;;;;;;;4957139;29;20031;-83
2022/07/16 08:13:33;;;;;;;7.68;2.70;;;;;;;;;;4957493;29;20031;-86
2022/07/16 08:15:59;;;;;;;6.15;2.78;;;;;;;;;;4957903;29;20027;-84
2022/07/16 08:18:25;;;;;;;7.15;2.63;;;;;;;;;;4957572;29;20039;-83
2022/07/16 08:20:51;;;;;;;5.47;3.10;;;;;;;;;;4956969;28;20026;-84
2022/07/16 08:25:44;;;;;;;7.40;2.85;;;;;;;;;;4957278;29;20039;-84
2022/07/16 08:26:03;;;;;;;5.57;2.75;;;;;;;;;;4939129;29;20075;-83
2022/07/16 08:28:29;;;;;;;5.82;2.35;;;;;;;;;;4955229;29;20042;-84
2022/07/16 08:30:55;;;;;;;5.18;3.13;;;;;;;;;;4959526;29;20118;-82
2022/07/16 08:33:22;;;;;;;8.65;2.65;;;;;;;;;;4976405;28;20046;-86
2022/07/16 08:35:48;;;;;;;13.30;3.53;;;;;;;;;;4998326;28;20026;-86
2022/07/16 08:38:14;;;;;;;10.65;3.83;;;;;;;;;;4997600;28;20501;-83
2022/07/16 08:40:42;;;;;;;5.45;2.60;;;;;;;;;;4996993;28;20077;-84
2022/07/16 08:43:09;;;;;;;5.13;2.47;;;;;;;;;;4996013;28;20533;-82
2022/07/16 08:45:36;;;;;;;7.45;2.78;;;;;;;;;;4996246;28;20101;-85
2022/07/16 08:48:02;;;;;;;7.95;2.97;;;;;;;;;;4996525;28;20030;-84
2022/07/16 08:50:28;;;;;;;9.05;2.88;;;;;;;;;;4976735;28;20391;-84
2022/07/16 08:52:55;;;;;;;6.93;2.38;;;;;;;;;;4960383;28;20434;-85
2022/07/16 08:55:25;;;;;;;9.80;3.40;;;;;;;;;;4962751;28;20038;-87
2022/07/16 08:57:51;;;;;;;6.70;2.13;;;;;;;;;;4970738;28;20028;-84
2022/07/16 09:00:26;;;;;;;6.60;2.03;;;768.40;1612.80;;;;;;5000120;28;20026;-84
2022/07/16 09:02:54;;;;;;;5.18;2.35;;;768.30;1587.20;;;;;;4971948;28;20026;-84
2022/07/16 09:05:20;;;;;;;9.88;2.63;;;768.40;1587.20;;;;;;4962295;28;20077;-83
2022/07/16 09:07:46;;;;;;;5.53;2.22;;;768.50;1587.20;;;;;;4960175;28;20463;-84
2022/07/16 09:10:12;;;;;;;4.93;2.50;;;768.60;1587.20;;;;;;4967500;28;20037;-88
2022/07/16 09:12:38;;;;;;;4.95;3.22;;;768.60;1587.20;;;;;;4969036;28;20054;-82
2022/07/16 09:15:29;;;;;;;8.48;3.38;;;768.50;1612.80;;;;;;4970872;28;20121;-83
2022/07/16 09:18:14;;;;;;;6.57;3.28;;;768.40;1612.80;;;;;;4977665;28;20031;-78
2022/07/16 09:20:45;;;;;;;6.38;2.63;;;768.40;1612.80;;;;;;4981274;28;20061;-77
2022/07/16 09:23:22;;;;;;;6.35;2.80;;;768.50;1638.40;;;;;;4980568;28;20058;-79
2022/07/16 09:25:51;;;;;;;4.88;2.90;;;768.50;1612.80;;;;;;4970914;28;20027;-85
2022/07/16 09:28:18;;;;;;;7.35;2.97;;;768.60;1612.80;;;;;;4969561;28;20077;-86
2022/07/16 09:30:44;;;;;;;5.20;3.25;;;768.50;1638.40;;;;;;4958748;28;20027;-84
2022/07/16 09:33:19;;;;;;;4.72;2.90;;;768.50;1638.40;;;;;;4956677;28;20443;-86
2022/07/16 09:35:45;;;;;;;4.65;2.42;;;768.70;1612.80;;;;;;4957953;29;20538;-86
2022/07/16 09:38:12;;;;;;;7.38;3.25;;;793.60;1612.80;;;;;;4956815;29;20034;-85
2022/07/16 09:40:43;;;;;;;5.13;2.05;;;;;;;;;;4955889;29;20038;-87
2022/07/16 09:43:15;;;;;;;9.63;2.60;;;;;;;;;;4956415;29;20033;-85
2022/07/16 09:45:49;;;;;;;12.10;2.80;;;;;;;;;;4956971;29;20024;-87
2022/07/16 09:48:22;;;;;;;4.65;2.78;;;;;;;;;;4955013;29;20024;-85
2022/07/16 09:50:49;;;;;;;7.97;2.33;;;;;;;;;;4955159;29;20033;-87
2022/07/16 09:53:17;;;;;;;4.70;2.67;;;;;;;;;;4955054;29;20178;-87
2022/07/16 09:56:02;;;;;;;8.18;2.45;;;;;;;;;;4954877;29;20034;-87
2022/07/16 09:58:29;;;;;;;5.03;2.78;;;;;;;;;;4955427;29;20034;-85
2022/07/16 10:00:56;;;;;;;5.78;2.22;;;;;;;;;;4954945;29;20170;-85
2022/07/16 10:03:22;;;;;;;4.18;2.00;;;;;;;;;;4955030;29;20071;-86
2022/07/16 10:05:48;;;;;;;8.07;2.72;;;;;;;;;;4955972;29;20041;-86
2022/07/16 10:08:15;;;;;;;5.95;2.17;;;;;;;;;;4956520;29;20459;-85
2022/07/16 10:10:41;;;;;;;11.23;2.45;;;;;;;;;;4955871;29;20024;-85
2022/07/16 10:13:08;;;;;;;9.65;2.40;;;;;;;;;;4955797;29;20443;-84
2022/07/16 10:15:35;;;;;;;7.20;2.35;;;;;;;;;;4955225;29;20023;-85
2022/07/16 10:18:01;;;;;;;4.65;2.72;;;;;;;;;;4954782;29;20024;-86
2022/07/16 10:20:27;;;;;;;7.50;2.40;;;;;;;;;;4954784;29;20118;-85
2022/07/16 10:22:53;;;;;;;6.88;2.17;;;;;;;;;;4954908;29;20024;-87
2022/07/16 10:25:24;;;;;;;4.15;2.70;;;;;;;;;;4954604;29;20023;-87
2022/07/16 10:27:51;;;;;;;7.50;2.35;;;;;;;;;;4954708;29;20118;-85
2022/07/16 10:30:19;;;;;;;6.40;2.30;;;;;;;;;;4954758;29;20031;-85
2022/07/16 10:33:12;;;;;;;6.30;2.58;;;;;;;;;;4956130;29;20051;-86
2022/07/16 10:35:40;;;;;;;7.05;2.40;;;;;;;;;;4953704;29;20062;-84
2022/07/16 10:38:06;;;;;;;5.05;2.40;;;;;;;;;;4955380;29;20037;-86
2022/07/16 10:40:32;;;;;;;4.78;2.47;;;;;;;;;;4954408;29;20035;-86
2022/07/16 10:43:17;;;;;;;9.05;2.78;;;;;;;;;;4954898;28;20023;-86
2022/07/16 10:45:51;;;;;;;5.93;2.80;;;;;;;;;;4958086;29;20028;-87
2022/07/16 10:48:18;;;;;;;8.00;2.80;;;;;;;;;;4958979;29;20470;-83
2022/07/16 10:51:03;;;;;;;6.18;2.45;;;;;;;;;;4958446;29;20030;-84
2022/07/16 10:53:29;;;;;;;5.95;2.80;;;;;;;;;;4958427;29;20035;-82
2022/07/16 10:55:55;;;;;;;3.95;2.08;;;;;;;;;;4958188;29;20023;-84
2022/07/16 10:58:26;;;;;;;5.68;2.22;;;;;;;;;;4958939;29;20031;-87
2022/07/16 11:00:53;;;;;;;7.00;2.50;;;;;;;;;;4958934;29;20073;-88
2022/07/16 11:03:19;;;;;;;6.38;2.78;;;;;;;;;;4958782;29;20035;-86
2022/07/16 11:05:46;;;;;;;6.88;3.10;;;;;;;;;;4958653;29;20019;-86
2022/07/16 11:08:13;;;;;;;3.97;2.30;;;;;;;;;;4959251;29;20027;-86
2022/07/16 11:10:40;;;;;;;5.25;2.80;;;;;;;;;;4958558;29;20059;-85
2022/07/16 11:13:13;;;;;;;6.20;3.03;;;;;;;;;;4958181;29;20062;-86
2022/07/16 11:15:39;;;;;;;5.07;2.80;;;;;;;;;;4958088;29;20110;-85
2022/07/16 11:18:15;;;;;;;5.18;2.75;;;;;;;;;;4958637;29;20035;-87
2022/07/16 11:20:42;;;;;;;8.10;2.30;;;;;;;;;;4957709;29;20030;-84
2022/07/16 11:23:08;;;;;;;8.20;2.72;;;;;;;;;;4957767;29;20027;-85
2022/07/16 11:25:34;;;;;;;4.65;2.65;;;845.70;1433.60;;;;;;4957243;29;20031;-86
2022/07/16 11:28:02;;;;;;;4.57;2.28;;;845.50;1433.60;;;;;;4957780;29;20074;-84
2022/07/16 11:30:28;;;;;;;8.00;3.10;;;845.30;1433.60;;;;;;4959064;29;20063;-85
2022/07/16 11:32:54;;;;;;;4.28;1.92;;;845.20;1433.60;;;;;;4957570;29;20406;-86
2022/07/16 11:35:20;;;;;;;4.72;2.30;;;845.40;1433.60;;;;;;4958388;29;20038;-81
2022/07/16 11:37:56;;;;;;;6.05;2.42;;;845.60;1433.60;;;;;;4958863;29;20038;-83
2022/07/16 11:40:36;;;;;;;6.20;2.45;;;845.70;1408.00;;;;;;4958195;29;20383;-84
2022/07/16 11:43:03;;;;;;;3.85;2.20;;;845.70;1433.60;;;;;;4958947;29;20471;-83
2022/07/16 11:45:34;;;;;;;4.45;2.33;;;845.70;1408.00;;;;;;4958947;29;20032;-86
2022/07/16 11:48:15;;;;;;;4.78;2.10;;;870.50;1433.60;;;;;;4958484;29;20058;-84
2022/07/16 11:50:43;;;;;;;5.10;2.50;;;845.70;1433.60;;;;;;4958067;29;20032;-83
2022/07/16 11:53:11;;;;;;;5.35;2.28;;;845.70;1433.60;;;;;;4958956;29;20458;-84
2022/07/16 11:55:45;;;;;;;7.28;2.65;;;870.50;1433.60;;;;;;4958600;28;20030;-84
2022/07/16 11:58:12;;;;;;;5.38;2.33;;;870.50;1408.00;;;;;;4959320;29;20027;-83
2022/07/16 12:00:46;;;;;;;5.65;2.95;;;870.70;1408.00;;;;;;4958695;29;20394;-81
2022/07/16 12:03:13;;;;;;;5.30;2.40;;;870.90;1408.00;;;;;;4958184;29;20083;-82
2022/07/16 12:05:39;;;;;;;5.20;2.42;;;870.80;1382.40;;;;;;4957530;29;20423;-84
2022/07/16 12:08:07;;;;;;;8.20;2.53;;;870.60;1408.00;;;;;;4959356;29;20034;-84
2022/07/16 12:10:33;;;;;;;4.80;2.38;;;870.80;1408.00;;;;;;4969035;29;20094;-83
2022/07/16 12:13:11;;;;;;;8.15;2.05;;;871.30;1382.40;;;;;;4965124;29;20464;-88
2022/07/16 12:15:57;;;;;;;6.15;2.60;;;871.10;1382.40;;;;;;4957963;29;20045;-83
2022/07/16 12:18:23;;;;;;;4.03;2.55;;;871.00;1382.40;;;;;;4957522;29;20023;-84
2022/07/16 12:20:52;;;;;;;9.82;2.15;;;870.90;1382.40;;;;;;4956887;29;20031;-84
2022/07/16 12:23:32;;;;;;;8.02;2.15;;;871.10;1382.40;;;;;;4944163;29;20030;-86
2022/07/16 12:26:04;;;;;;;4.45;2.33;;;871.30;1382.40;;;;;;4953531;29;20027;-84
2022/07/16 12:28:30;;;;;;;7.95;2.75;;;871.00;1382.40;;;;;;4953911;29;20031;-84
2022/07/16 12:31:11;;;;;;;5.88;2.20;;;871.20;1356.80;;;;;;4953856;29;20040;-84
2022/07/16 12:33:39;;;;;;;5.90;2.22;;;896.00;1382.40;;;;;;4970305;28;20135;-82
2022/07/16 12:36:06;;;;;;;4.05;2.00;;;896.10;1356.80;;;;;;4941531;29;20129;-86
2022/07/16 12:38:50;;;;;;;4.20;1.95;;;896.30;1382.40;;;;;;4940776;29;20061;-85
2022/07/16 12:41:24;;;;;;;5.95;2.10;;;;;;;;;;4941078;29;20031;-85
2022/07/16 12:43:55;;;;;;;8.00;2.47;;;896.30;1356.80;;;;;;4940866;29;20022;-85
2022/07/16 12:46:27;;;;;;;5.40;2.45;;;871.10;1382.40;;;;;;4941236;29;20082;-84
2022/07/16 12:48:57;;;;;;;4.35;2.15;;;871.10;1382.40;;;;;;4942298;29;20027;-87
2022/07/16 12:51:24;;;;;;;5.53;2.20;;;;;;;;;;4942989;29;20408;-86
2022/07/16 12:53:51;;;;;;;5.13;2.20;;;;;;;;;;4941483;29;20031;-87